Greater Binghamton/Edwin A Link field
KBGM : now visible

Airfield :











YOU CAN JOIN US ON...

 
LOGIN :

Register | Disclaimer

   EN    FR    IT 

 









Legend :    VFR   Marginal VFR   IFR   Intensive IFR   Very Intensive IFR
Visi :
Ceiling :
>= 8 km
>= 3000ft
5 to 8 km
1000 to 3000 ft
1500m to 5 km
500 to 1000 ft
800 to 1500m
200 to 500 ft
< 800m
< 200 ft
Symbols :   Thunderstorms  Fog  Heavy snow  Heavy precipitations  Wind > 20 kt






- Airport Elevation : 1636 ft
- IATA code : BGM


KBGM - Greater Binghamton/Edwin A Link field

CURRENT METAR :
  • 280353Z AUTO 18004KT 10SM CLR 20/14 A3017 RMK AO2 SLP207 T02000144

EXPIRED METARs :
  • 280253Z AUTO 19005KT 10SM CLR 20/14 A3017 RMK AO2 SLP207 T02000144 50004
  • 280153Z AUTO 19004KT 10SM CLR 21/14 A3017 RMK AO2 SLP208 T02060144

TAF KBGM
Valid from the 28 at 00:00 until the 29 at 00:00 UTC


272332Z 2800/2824 20009KT P6SM FEW050 SCT210
FM280900 17006KT P6SM BKN027
FM281000 17006KT P6SM OVC013
FM281800 17012KT P6SM OVC018
KZNY FIR / North America



MET'MAP, your aeronautical weather chart ! - Copyright ORBIFLY December 2007 - Disclaimer

ORBIFLY MET'MAP TEAM :

Programming & Development : Alexandra Zaïnal
Concept & original design : Baudouin d'Aumeries
Assistance for programming : Marc-Olivier Méhu
Technical & hardware support : Manuel Goepfert

Contact : metmap@orbifly.com




SOURCES & CREDITS :

   NOAA       Earth
Advisory